Time;durP1;ratioP1;P1;durP2;ratioP2;P2;SDS_P1;SDS_P2;PMS_P1;PMS_P2;Temp;Humidity;BMP_temperature;BMP_pressure;BME280_temperature;BME280_humidity;BME280_pressure;Samples;Min_cycle;Max_cycle;Signal;HPM_P1;HPM_P2
2023/10/28 00:02:23;;;;;;;;;5.25;3.75;;;;;;;;6340534;22;45215;-79
2023/10/28 00:04:48;;;;;;;;;5.00;2.33;;;;;;;;6340664;22;45271;-79
2023/10/28 00:07:13;;;;;;;;;3.67;2.67;;;;;;;;6339261;22;45175;-79
2023/10/28 00:09:40;;;;;;;;;2.00;2.00;;;;;;;;6340502;22;45241;-79
2023/10/28 00:12:08;;;;;;;;;2.00;2.00;;;;;;;;6340176;22;45227;-80
2023/10/28 00:14:33;;;;;;;;;4.67;1.67;;;;;;;;6339241;22;45252;-81
2023/10/28 00:16:59;;;;;;;;;5.33;3.00;;;;;;;;6339188;22;45218;-80
2023/10/28 00:19:24;;;;;;;;;3.00;2.67;;;;;;;;6311678;22;47460;-78
2023/10/28 00:21:49;;;;;;;;;3.00;1.00;;;;;;;;6340185;22;45212;-80
2023/10/28 00:24:14;;;;;;;;;5.33;1.00;;;;;;;;6312298;22;45299;-78
2023/10/28 00:26:40;;;;;;;;;2.00;1.00;;;;;;;;6340231;22;45227;-78
2023/10/28 00:29:05;;;;;;;;;3.00;2.00;;;;;;;;6311714;22;46652;-80
2023/10/28 00:31:31;;;;;;;;;3.00;1.00;;;;;;;;6311836;22;45235;-78
2023/10/28 00:33:56;;;;;;;;;3.00;3.00;;;;;;;;6340521;22;45232;-79
2023/10/28 00:36:22;;;;;;;;;2.00;2.00;;;;;;;;6311449;22;45333;-77
2023/10/28 00:38:47;;;;;;;;;2.33;2.00;;;;;;;;6340484;22;45375;-79
2023/10/28 00:41:13;;;;;;;;;6.00;3.00;;;;;;;;6340242;22;44582;-80
2023/10/28 00:43:38;;;;;;;;;4.00;2.33;;;;;;;;6312202;22;45302;-80
2023/10/28 00:46:07;;;;;;;;;0.00;0.00;;;;;;;;6340161;22;45315;-77
2023/10/28 00:48:32;;;;;;;;;4.67;3.00;;;;;;;;6340115;22;45343;-79
2023/10/28 00:51:00;;;;;;;;;3.33;1.00;;;;;;;;6311387;22;45191;-80
2023/10/28 00:53:26;;;;;;;;;2.00;1.00;;;;;;;;6340181;22;45231;-80
2023/10/28 00:55:52;;;;;;;;;7.33;1.67;;;;;;;;6339321;22;45330;-80
2023/10/28 00:58:20;;;;;;;;;3.33;1.33;;;;;;;;6339932;22;45649;-78
2023/10/28 01:00:46;;;;;;;;;2.67;1.33;;;;;;;;6340756;22;45104;-78
2023/10/28 01:03:11;;;;;;;;;2.67;1.00;;;;;;;;6340303;22;44698;-77
2023/10/28 01:05:37;;;;;;;;;2.00;2.00;;;;;;;;6339699;22;45432;-79
2023/10/28 01:08:02;;;;;;;;;5.50;2.00;;;;;;;;6339428;22;46023;-78
2023/10/28 01:10:28;;;;;;;;;4.67;2.33;;;;;;;;6340209;22;45260;-79
2023/10/28 01:12:53;;;;;;;;;3.00;2.00;;;;;;;;6340215;22;45220;-79
2023/10/28 01:15:19;;;;;;;;;2.00;2.00;;;;;;;;6339882;22;45487;-78
2023/10/28 01:17:45;;;;;;;;;2.00;2.00;;;;;;;;6340073;22;45548;-79
2023/10/28 01:20:10;;;;;;;;;3.00;3.00;;;;;;;;6340187;22;45258;-79
2023/10/28 01:22:36;;;;;;;;;2.67;1.67;;;;;;;;6339498;22;45243;-79
2023/10/28 01:25:01;;;;;;;;;2.67;2.00;;;;;;;;6339903;22;44736;-79
2023/10/28 01:27:26;;;;;;;;;1.33;1.00;;;;;;;;6339875;22;45349;-80
2023/10/28 01:29:51;;;;;;;;;3.00;2.00;;;;;;;;6340264;22;45301;-79
2023/10/28 01:32:16;;;;;;;;;1.67;1.00;;;;;;;;6339936;22;45251;-80
2023/10/28 01:34:47;;;;;;;;;0.00;0.00;;;;;;;;6339955;22;45326;-79
2023/10/28 01:37:12;;;;;;;;;4.67;2.00;;;;;;;;6311173;22;47164;-79
2023/10/28 01:39:38;;;;;;;;;2.00;2.00;;;;;;;;6339989;22;45139;-79
2023/10/28 01:42:04;;;;;;;;;1.33;1.00;;;;;;;;6340086;22;45085;-79
2023/10/28 01:44:34;;;;;;;;;5.00;2.00;;;;;;;;6339573;22;45310;-79
2023/10/28 01:46:59;;;;;;;;;2.33;1.00;;;;;;;;6339345;22;46384;-80
2023/10/28 01:49:24;;;;;;;;;1.67;1.67;;;;;;;;6340091;22;45267;-78
2023/10/28 01:51:49;;;;;;;;;2.67;2.00;;;;;;;;6339472;22;45437;-79
2023/10/28 01:54:14;;;;;;;;;2.00;2.00;;;;;;;;6339824;22;45397;-79
2023/10/28 01:56:39;;;;;;;;;3.50;1.00;;;;;;;;6311493;22;46091;-77
2023/10/28 01:59:05;;;;;;;;;1.00;1.00;;;;;;;;6310208;22;45262;-78
2023/10/28 02:01:30;;;;;;;;;3.67;0.67;;;;;;;;6340144;22;45180;-80
2023/10/28 02:03:56;;;;;;;;;2.33;1.00;;;;;;;;6339816;22;45220;-80
2023/10/28 02:06:21;;;;;;;;;2.33;1.00;;;;;;;;6339751;22;46403;-81
2023/10/28 02:08:46;;;;;;;;;1.00;1.00;;;;;;;;6340703;22;45368;-80
2023/10/28 02:11:11;;;;;;;;;1.00;1.00;;;;;;;;6341174;22;45333;-80
2023/10/28 02:13:36;;;;;;;;;1.67;0.67;;;;;;;;6340761;22;45225;-80
2023/10/28 02:16:02;;;;;;;;;1.00;1.00;;;;;;;;6341018;22;45582;-80
2023/10/28 02:18:27;;;;;;;;;2.00;2.00;;;;;;;;6312162;22;45231;-80
2023/10/28 02:20:54;;;;;;;;;0.33;0.33;;;;;;;;6312278;22;45316;-80
2023/10/28 02:23:19;;;;;;;;;1.67;1.67;;;;;;;;6340669;22;45327;-79
2023/10/28 02:25:45;;;;;;;;;2.00;1.00;;;;;;;;6312017;22;45341;-79
2023/10/28 02:28:10;;;;;;;;;2.00;1.00;;;;;;;;6340564;22;45346;-79
2023/10/28 02:30:37;;;;;;;;;4.00;1.67;;;;;;;;6312318;22;45295;-80
2023/10/28 02:33:02;;;;;;;;;3.00;1.00;;;;;;;;6340799;22;45623;-80
2023/10/28 02:35:27;;;;;;;;;2.00;1.00;;;;;;;;6340250;22;45580;-80
2023/10/28 02:37:52;;;;;;;;;2.67;1.67;;;;;;;;6340615;22;45255;-80
2023/10/28 02:40:18;;;;;;;;;3.00;1.00;;;;;;;;6312855;22;45211;-79
2023/10/28 02:42:44;;;;;;;;;4.67;3.00;;;;;;;;6340682;22;45273;-79
2023/10/28 02:45:09;;;;;;;;;2.00;2.00;;;;;;;;6340743;22;46174;-79
2023/10/28 02:47:34;;;;;;;;;0.00;0.00;;;;;;;;6340645;22;45101;-80
2023/10/28 02:50:00;;;;;;;;;3.33;1.00;;;;;;;;6341168;22;45167;-79
2023/10/28 02:52:25;;;;;;;;;1.67;1.00;;;;;;;;6340635;22;45137;-80
2023/10/28 02:54:50;;;;;;;;;1.00;1.00;;;;;;;;6342008;22;45440;-80
2023/10/28 02:57:16;;;;;;;;;1.67;1.00;;;;;;;;6341574;22;45168;-80
2023/10/28 02:59:41;;;;;;;;;0.67;0.67;;;;;;;;6313905;22;45123;-81
2023/10/28 03:02:06;;;;;;;;;1.00;1.00;;;;;;;;6341585;22;45126;-80
2023/10/28 03:04:32;;;;;;;;;2.00;0.00;;;;;;;;6313076;22;46929;-80
2023/10/28 03:06:57;;;;;;;;;2.00;0.00;;;;;;;;6340008;22;44857;-80
2023/10/28 03:09:22;;;;;;;;;1.33;0.00;;;;;;;;6312544;22;44834;-79
2023/10/28 03:11:47;;;;;;;;;1.00;1.00;;;;;;;;6340702;22;45115;-80
2023/10/28 03:14:12;;;;;;;;;1.00;0.67;;;;;;;;6340770;22;46122;-79
2023/10/28 03:16:39;;;;;;;;;2.33;0.00;;;;;;;;6340434;22;45212;-80
2023/10/28 03:19:04;;;;;;;;;3.33;0.67;;;;;;;;6340720;22;45335;-81
2023/10/28 03:21:29;;;;;;;;;2.00;0.00;;;;;;;;6340227;22;45223;-80
2023/10/28 03:23:54;;;;;;;;;1.00;1.00;;;;;;;;6312562;22;47372;-79
2023/10/28 03:26:19;;;;;;;;;0.00;0.00;;;;;;;;6311992;22;45208;-80
2023/10/28 03:28:44;;;;;;;;;1.00;1.00;;;;;;;;6341010;22;44712;-80
2023/10/28 03:31:10;;;;;;;;;1.33;0.00;;;;;;;;6340740;22;45244;-80
2023/10/28 03:33:37;;;;;;;;;2.33;2.00;;;;;;;;6312304;22;48322;-81
2023/10/28 03:36:03;;;;;;;;;2.00;1.00;;;;;;;;6340581;22;45326;-81
2023/10/28 03:38:28;;;;;;;;;0.67;0.33;;;;;;;;6340083;22;45212;-80
2023/10/28 03:40:53;;;;;;;;;2.00;1.67;;;;;;;;6340921;22;45225;-81
2023/10/28 03:43:18;;;;;;;;;1.00;0.00;;;;;;;;6340489;22;46229;-81
2023/10/28 03:45:44;;;;;;;;;3.00;1.00;;;;;;;;6312146;22;45274;-80
2023/10/28 03:48:09;;;;;;;;;0.00;0.00;;;;;;;;6340823;22;45282;-79
2023/10/28 03:50:35;;;;;;;;;1.00;1.00;;;;;;;;6340522;22;45223;-78
2023/10/28 03:53:00;;;;;;;;;1.00;1.00;;;;;;;;6311422;22;46455;-81
2023/10/28 03:55:25;;;;;;;;;1.00;1.00;;;;;;;;6341284;22;45276;-80
2023/10/28 03:57:50;;;;;;;;;3.00;0.00;;;;;;;;6340679;22;44632;-80
2023/10/28 04:00:16;;;;;;;;;2.00;0.33;;;;;;;;6340684;22;45302;-80
2023/10/28 04:02:41;;;;;;;;;1.67;1.00;;;;;;;;6340498;22;45672;-79
2023/10/28 04:05:07;;;;;;;;;1.00;0.00;;;;;;;;6340450;22;45138;-79
2023/10/28 04:07:32;;;;;;;;;1.67;1.00;;;;;;;;6339615;22;45279;-81
2023/10/28 04:10:03;;;;;;;;;2.00;0.00;;;;;;;;6340686;22;45120;-81
2023/10/28 04:12:28;;;;;;;;;1.00;1.00;;;;;;;;6340543;22;45193;-81
2023/10/28 04:14:54;;;;;;;;;2.33;0.00;;;;;;;;6340165;22;45219;-81
2023/10/28 04:17:19;;;;;;;;;0.67;0.67;;;;;;;;6340609;22;45206;-81
2023/10/28 04:19:44;;;;;;;;;1.00;1.00;;;;;;;;6340729;22;45172;-81
2023/10/28 04:22:09;;;;;;;;;4.33;1.00;;;;;;;;6339925;22;45431;-81
2023/10/28 04:24:34;;;;;;;;;1.67;1.00;;;;;;;;6340541;22;45142;-79
2023/10/28 04:26:59;;;;;;;;;2.00;1.00;;;;;;;;6340378;22;45143;-79
2023/10/28 04:29:25;;;;;;;;;1.67;1.67;;;;;;;;6340400;22;45090;-81
2023/10/28 04:31:50;;;;;;;;;0.00;0.00;;;;;;;;6311696;22;45934;-80
2023/10/28 04:34:15;;;;;;;;;4.33;1.33;;;;;;;;6312154;22;45203;-80
2023/10/28 04:36:40;;;;;;;;;1.00;1.00;;;;;;;;6340300;22;45540;-80
2023/10/28 04:39:05;;;;;;;;;2.00;1.00;;;;;;;;6340502;22;45395;-80
2023/10/28 04:41:31;;;;;;;;;2.33;0.33;;;;;;;;6340333;22;45133;-79
2023/10/28 04:43:56;;;;;;;;;3.33;2.00;;;;;;;;6340444;22;45135;-81
2023/10/28 04:46:21;;;;;;;;;1.33;1.33;;;;;;;;6312508;22;45274;-80
2023/10/28 04:48:46;;;;;;;;;2.67;2.00;;;;;;;;6340648;22;45255;-81
2023/10/28 04:51:12;;;;;;;;;4.00;1.00;;;;;;;;6340840;22;45399;-81
2023/10/28 04:53:37;;;;;;;;;1.67;0.00;;;;;;;;6341243;22;45228;-80
2023/10/28 04:56:02;;;;;;;;;1.00;0.00;;;;;;;;6342119;22;45503;-81
2023/10/28 04:58:28;;;;;;;;;0.67;0.33;;;;;;;;6341074;22;45276;-80
2023/10/28 05:00:53;;;;;;;;;3.00;1.33;;;;;;;;6342553;22;45245;-80
2023/10/28 05:03:18;;;;;;;;;1.33;0.00;;;;;;;;6342349;22;45073;-80
2023/10/28 05:05:43;;;;;;;;;1.33;1.33;;;;;;;;6339869;22;45362;-80
2023/10/28 05:08:08;;;;;;;;;0.75;0.75;;;;;;;;6339394;22;45489;-80
2023/10/28 05:10:34;;;;;;;;;1.00;1.00;;;;;;;;6312113;22;47072;-80
2023/10/28 05:12:59;;;;;;;;;2.00;2.00;;;;;;;;6339743;22;45191;-81
2023/10/28 05:15:24;;;;;;;;;1.67;0.00;;;;;;;;6312128;22;45309;-78
2023/10/28 05:17:50;;;;;;;;;2.00;1.00;;;;;;;;6339764;22;45245;-80
2023/10/28 05:20:15;;;;;;;;;1.67;1.67;;;;;;;;6311386;22;45309;-81
2023/10/28 05:22:43;;;;;;;;;2.33;1.00;;;;;;;;6339865;22;45125;-81
2023/10/28 05:25:08;;;;;;;;;2.67;2.67;;;;;;;;6340142;22;45228;-81
2023/10/28 05:27:34;;;;;;;;;3.67;1.33;;;;;;;;6339607;22;45278;-81
2023/10/28 05:29:59;;;;;;;;;1.67;0.67;;;;;;;;6340026;22;45377;-81
2023/10/28 05:32:25;;;;;;;;;3.00;1.67;;;;;;;;6310664;22;45431;-81
2023/10/28 05:34:50;;;;;;;;;2.67;1.33;;;;;;;;6339807;22;45233;-80
2023/10/28 05:37:16;;;;;;;;;7.00;1.67;;;;;;;;6339091;22;45326;-81
2023/10/28 05:39:41;;;;;;;;;2.67;1.00;;;;;;;;6311272;22;46647;-80
2023/10/28 05:42:07;;;;;;;;;3.33;1.33;;;;;;;;6342358;22;45118;-80
2023/10/28 05:44:32;;;;;;;;;1.00;1.00;;;;;;;;6344004;22;45139;-80
2023/10/28 05:46:59;;;;;;;;;2.00;1.00;;;;;;;;6342994;22;45359;-80
2023/10/28 05:49:24;;;;;;;;;5.00;3.00;;;;;;;;6343595;22;45202;-80
2023/10/28 05:51:49;;;;;;;;;3.00;2.33;;;;;;;;6314526;22;45372;-81
2023/10/28 05:54:14;;;;;;;;;5.67;1.00;;;;;;;;6315072;22;45357;-81
2023/10/28 05:56:40;;;;;;;;;3.00;3.00;;;;;;;;6343097;22;45260;-81
2023/10/28 05:59:05;;;;;;;;;2.67;2.00;;;;;;;;6343395;22;46632;-79
2023/10/28 06:01:31;;;;;;;;;1.00;1.00;;;;;;;;6343260;22;45184;-80
2023/10/28 06:03:56;;;;;;;;;2.67;1.00;;;;;;;;6343187;22;45250;-79
2023/10/28 06:06:21;;;;;;;;;2.00;1.00;;;;;;;;6342903;22;45547;-80
2023/10/28 06:08:47;;;;;;;;;5.33;1.67;;;;;;;;6335874;22;47572;-79
2023/10/28 06:11:12;;;;;;;;;1.00;1.00;;;;;;;;6340799;22;45309;-80
2023/10/28 06:13:38;;;;;;;;;1.67;1.00;;;;;;;;6342895;22;45222;-81
2023/10/28 06:16:03;;;;;;;;;3.00;1.00;;;;;;;;6343145;22;45207;-80
2023/10/28 06:18:29;;;;;;;;;3.33;2.00;;;;;;;;6342569;22;45225;-80
2023/10/28 06:20:54;;;;;;;;;4.00;1.33;;;;;;;;6342679;22;45300;-80
2023/10/28 06:23:19;;;;;;;;;4.00;3.00;;;;;;;;6342666;22;44722;-78
2023/10/28 06:25:45;;;;;;;;;3.00;2.00;;;;;;;;6343216;22;45228;-78
2023/10/28 06:28:10;;;;;;;;;4.67;2.00;;;;;;;;6342680;22;45315;-79
2023/10/28 06:30:36;;;;;;;;;2.00;1.00;;;;;;;;6340905;22;45192;-80
2023/10/28 06:33:02;;;;;;;;;2.00;2.00;;;;;;;;6343082;22;45241;-82
2023/10/28 06:35:27;;;;;;;;;5.00;2.67;;;;;;;;6342594;22;45177;-81
2023/10/28 06:37:52;;;;;;;;;3.67;2.67;;;;;;;;6342515;22;45361;-78
2023/10/28 06:40:17;;;;;;;;;3.33;1.00;;;;;;;;6343177;22;45147;-78
2023/10/28 06:42:43;;;;;;;;;1.67;1.67;;;;;;;;6340638;22;45185;-79
2023/10/28 06:45:10;;;;;;;;;3.33;2.67;;;;;;;;6343002;22;45347;-82
2023/10/28 06:47:35;;;;;;;;;4.00;1.00;;;;;;;;6342552;22;45364;-81
2023/10/28 06:50:04;;;;;;;;;2.67;0.67;;;;;;;;6342755;22;45209;-81
2023/10/28 06:52:29;;;;;;;;;2.00;2.00;;;;;;;;6339854;22;45274;-77
2023/10/28 06:54:55;;;;;;;;;2.33;2.33;;;;;;;;6343506;22;45197;-79
2023/10/28 06:57:20;;;;;;;;;4.00;2.00;;;;;;;;6340746;22;45748;-79
2023/10/28 06:59:45;;;;;;;;;4.67;2.33;;;;;;;;6342772;22;45136;-80
2023/10/28 07:02:10;;;;;;;;;5.00;2.00;;;;;;;;6343645;22;45138;-83
2023/10/28 07:04:36;;;;;;;;;4.00;4.00;;;;;;;;6343339;22;45133;-80
2023/10/28 07:07:01;;;;;;;;;1.67;1.67;;;;;;;;6328318;22;45247;-83
2023/10/28 07:09:26;;;;;;;;;2.00;2.00;;;;;;;;6305787;22;45118;-81
2023/10/28 07:11:53;;;;;;;;;2.67;2.00;;;;;;;;6306519;22;45375;-80
2023/10/28 07:14:18;;;;;;;;;7.33;3.00;;;;;;;;6307188;22;45236;-83
2023/10/28 07:16:43;;;;;;;;;2.00;2.00;;;;;;;;6307667;22;45321;-81
2023/10/28 07:19:09;;;;;;;;;5.00;2.67;;;;;;;;6309217;22;45199;-79
2023/10/28 07:21:35;;;;;;;;;2.00;1.67;;;;;;;;6308891;22;45401;-84
2023/10/28 07:24:01;;;;;;;;;3.67;2.33;;;;;;;;6310324;22;44799;-83
2023/10/28 07:26:28;;;;;;;;;2.00;1.00;;;;;;;;6314553;22;46116;-82
2023/10/28 07:28:54;;;;;;;;;1.00;1.00;;;;;;;;6317793;22;45324;-83
2023/10/28 07:31:19;;;;;;;;;1.67;1.67;;;;;;;;6314915;22;45200;-82
2023/10/28 07:33:45;;;;;;;;;1.33;1.00;;;;;;;;6282466;22;46181;-84
2023/10/28 07:36:12;;;;;;;;;3.00;1.00;;;;;;;;6308726;22;46387;-81
2023/10/28 07:38:38;;;;;;;;;4.00;1.67;;;;;;;;6309430;22;45332;-81
2023/10/28 07:41:04;;;;;;;;;7.00;6.00;;;;;;;;6281132;22;45282;-76
2023/10/28 07:43:29;;;;;;;;;3.67;1.00;;;;;;;;6306050;22;45339;-81
2023/10/28 07:45:54;;;;;;;;;2.00;1.00;;;;;;;;6280470;22;46313;-81
2023/10/28 07:48:19;;;;;;;;;1.00;1.00;;;;;;;;6278641;22;45230;-79
2023/10/28 07:50:44;;;;;;;;;1.00;1.00;;;;;;;;6308408;22;45147;-80
2023/10/28 07:53:11;;;;;;;;;3.00;2.00;;;;;;;;6306931;22;45567;-82
2023/10/28 07:55:38;;;;;;;;;2.00;2.00;;;;;;;;6307777;22;45339;-81
2023/10/28 07:58:03;;;;;;;;;1.00;1.00;;;;;;;;6308158;22;45270;-80
2023/10/28 08:00:29;;;;;;;;;1.67;1.00;;;;;;;;6280847;22;44653;-81
2023/10/28 08:02:54;;;;;;;;;4.00;1.67;;;;;;;;6308799;22;45488;-81
2023/10/28 08:05:19;;;;;;;;;2.00;2.00;;;;;;;;6307813;22;45776;-81
2023/10/28 08:07:48;;;;;;;;;1.00;1.00;;;;;;;;6309851;22;45212;-79
2023/10/28 08:10:14;;;;;;;;;3.00;1.00;;;;;;;;6308870;22;45216;-80
2023/10/28 08:12:39;;;;;;;;;1.67;0.00;;;;;;;;6308745;22;45102;-79
2023/10/28 08:15:07;;;;;;;;;2.00;1.33;;;;;;;;6307796;22;45580;-79
2023/10/28 08:17:32;;;;;;;;;5.33;1.00;;;;;;;;6308668;22;45231;-77
2023/10/28 08:19:58;;;;;;;;;2.33;2.33;;;;;;;;6308421;22;45244;-76
2023/10/28 08:22:24;;;;;;;;;2.33;1.00;;;;;;;;6306641;22;45271;-77
2023/10/28 08:24:49;;;;;;;;;1.33;1.00;;;;;;;;6279163;22;47501;-76
2023/10/28 08:27:14;;;;;;;;;1.33;1.33;;;;;;;;6278272;22;45328;-77
2023/10/28 08:29:40;;;;;;;;;0.00;0.00;;;;;;;;6279756;22;45549;-76
2023/10/28 08:32:05;;;;;;;;;3.33;2.33;;;;;;;;6306939;22;45263;-78
2023/10/28 08:34:31;;;;;;;;;0.33;0.33;;;;;;;;6307393;22;45304;-76
2023/10/28 08:36:56;;;;;;;;;1.00;0.00;;;;;;;;6306287;22;45224;-78
2023/10/28 08:39:21;;;;;;;;;3.75;1.25;;;;;;;;6307938;22;45504;-77
2023/10/28 08:41:47;;;;;;;;;1.00;1.00;;;;;;;;6307736;22;44543;-76
2023/10/28 08:44:14;;;;;;;;;1.67;0.00;;;;;;;;6307382;22;45654;-78
2023/10/28 08:46:41;;;;;;;;;4.00;1.00;;;;;;;;6307387;22;45268;-77
2023/10/28 08:49:08;;;;;;;;;2.67;1.00;;;;;;;;6306838;22;45237;-77
2023/10/28 08:51:36;;;;;;;;;3.00;2.00;;;;;;;;6306867;22;45311;-77
2023/10/28 08:54:04;;;;;;;;;2.67;1.00;;;;;;;;6278005;22;48189;-77
2023/10/28 08:56:32;;;;;;;;;2.00;1.00;;;;;;;;6307122;22;45358;-77
2023/10/28 08:58:57;;;;;;;;;4.33;1.67;;;;;;;;6307303;22;45208;-77
2023/10/28 09:01:24;;;;;;;;;3.00;1.00;;;;;;;;6279436;22;46241;-76
2023/10/28 09:03:54;;;;;;;;;2.00;1.00;;;;;;;;6307065;22;45578;-76
2023/10/28 09:06:20;;;;;;;;;2.00;2.00;;;;;;;;6278943;22;45125;-76
2023/10/28 09:08:45;;;;;;;;;3.00;1.00;;;;;;;;6299773;22;45334;-76
2023/10/28 09:11:11;;;;;;;;;2.00;2.00;;;;;;;;6306510;22;45292;-76
2023/10/28 09:13:36;;;;;;;;;1.00;1.00;;;;;;;;6307248;22;46432;-76
2023/10/28 09:16:03;;;;;;;;;1.00;1.00;;;;;;;;6306033;22;45586;-76
2023/10/28 09:18:36;;;;;;;;;1.00;1.00;;;;;;;;6307540;22;45309;-77
2023/10/28 09:21:01;;;;;;;;;5.00;0.00;;;;;;;;6306539;22;45280;-76
2023/10/28 09:23:30;;;;;;;;;1.67;1.67;;;;;;;;6305745;22;46237;-75
2023/10/28 09:25:55;;;;;;;;;4.00;2.00;;;;;;;;6306807;22;45388;-76
2023/10/28 09:28:20;;;;;;;;;1.33;1.00;;;;;;;;6307482;22;45198;-75
2023/10/28 09:30:46;;;;;;;;;2.00;1.00;;;;;;;;6307552;22;45361;-78
2023/10/28 09:33:12;;;;;;;;;1.33;0.00;;;;;;;;6306579;22;45418;-75
2023/10/28 09:35:39;;;;;;;;;0.00;0.00;;;;;;;;6306691;22;45210;-75
2023/10/28 09:38:05;;;;;;;;;4.00;1.00;;;;;;;;6306410;22;45371;-77
2023/10/28 09:40:31;;;;;;;;;1.00;1.00;;;;;;;;6307895;22;45316;-78
2023/10/28 09:42:56;;;;;;;;;4.00;0.67;;;;;;;;6306778;22;45275;-75
2023/10/28 09:45:22;;;;;;;;;0.33;0.33;;;;;;;;6308166;22;45283;-76
2023/10/28 09:47:47;;;;;;;;;0.67;0.67;;;;;;;;6307522;22;45390;-78
2023/10/28 09:50:14;;;;;;;;;2.67;1.00;;;;;;;;6307495;22;45356;-75
2023/10/28 09:52:41;;;;;;;;;1.33;0.33;;;;;;;;6305231;22;46670;-77
2023/10/28 09:55:09;;;;;;;;;0.00;0.00;;;;;;;;6307401;22;45306;-76
2023/10/28 09:57:34;;;;;;;;;5.67;4.33;;;;;;;;6306044;22;45226;-76
2023/10/28 10:00:02;;;;;;;;;2.00;2.00;;;;;;;;6307036;22;45306;-79
2023/10/28 10:02:34;;;;;;;;;18.00;16.00;;;;;;;;6304830;22;46898;-78
2023/10/28 10:05:05;;;;;;;;;3.00;3.00;;;;;;;;6302895;22;45782;-78
2023/10/28 10:07:30;;;;;;;;;1.00;1.00;;;;;;;;6305807;22;45266;-79
2023/10/28 10:10:05;;;;;;;;;1.00;1.00;;;;;;;;6278160;22;45931;-81
2023/10/28 10:12:33;;;;;;;;;1.00;1.00;;;;;;;;6306644;22;45363;-84
2023/10/28 10:14:59;;;;;;;;;0.00;0.00;;;;;;;;6278280;22;45224;-81
2023/10/28 10:17:44;;;;;;;;;0.00;0.00;;;;;;;;6306647;22;45302;-82
2023/10/28 10:20:09;;;;;;;;;1.33;0.00;;;;;;;;6305867;22;45171;-83
2023/10/28 10:22:37;;;;;;;;;0.00;0.00;;;;;;;;6306832;22;45228;-83
2023/10/28 10:25:03;;;;;;;;;0.00;0.00;;;;;;;;6307883;22;45338;-81
2023/10/28 10:27:34;;;;;;;;;1.00;0.00;;;;;;;;6307489;22;45279;-82
2023/10/28 10:30:04;;;;;;;;;1.00;1.00;;;;;;;;6310773;22;44767;-84
2023/10/28 10:32:29;;;;;;;;;1.67;1.33;;;;;;;;6309058;22;45374;-84
2023/10/28 10:34:54;;;;;;;;;2.00;0.75;;;;;;;;6309439;22;45212;-81
2023/10/28 10:37:23;;;;;;;;;1.00;1.00;;;;;;;;6280163;22;45299;-84
2023/10/28 10:39:48;;;;;;;;;0.00;0.00;;;;;;;;6281192;22;45932;-83
2023/10/28 10:42:13;;;;;;;;;0.00;0.00;;;;;;;;6280021;22;46899;-84
2023/10/28 10:44:39;;;;;;;;;0.00;0.00;;;;;;;;6309074;22;45206;-82
2023/10/28 10:47:08;;;;;;;;;0.33;0.33;;;;;;;;6309651;22;45135;-82
2023/10/28 10:49:34;;;;;;;;;0.33;0.33;;;;;;;;6309325;22;45315;-85
2023/10/28 10:52:02;;;;;;;;;2.00;1.00;;;;;;;;6308983;22;46869;-82
2023/10/28 10:54:38;;;;;;;;;0.67;0.67;;;;;;;;6310816;22;45291;-85
2023/10/28 10:57:04;;;;;;;;;0.00;0.00;;;;;;;;6310837;22;45216;-83
2023/10/28 10:59:31;;;;;;;;;1.00;1.00;;;;;;;;6311209;22;45182;-84
2023/10/28 11:01:57;;;;;;;;;1.00;0.00;;;;;;;;6310077;22;45727;-82
2023/10/28 11:04:23;;;;;;;;;1.00;1.00;;;;;;;;6282924;22;45191;-84
2023/10/28 11:06:48;;;;;;;;;3.67;3.00;;;;;;;;6282365;22;45257;-85
2023/10/28 11:09:15;;;;;;;;;1.00;1.00;;;;;;;;6310151;22;45234;-83
2023/10/28 11:11:41;;;;;;;;;1.67;1.67;;;;;;;;6308895;22;45669;-84
2023/10/28 11:14:06;;;;;;;;;1.00;1.00;;;;;;;;6309996;22;45218;-85
2023/10/28 11:16:32;;;;;;;;;2.00;2.00;;;;;;;;6310147;22;45248;-82
2023/10/28 11:18:59;;;;;;;;;0.00;0.00;;;;;;;;6312135;22;45841;-83
2023/10/28 11:21:25;;;;;;;;;1.00;1.00;;;;;;;;6312191;22;45190;-83
2023/10/28 11:23:52;;;;;;;;;2.00;2.00;;;;;;;;6282721;22;45473;-83
2023/10/28 11:26:18;;;;;;;;;1.00;1.00;;;;;;;;6309984;22;44750;-82
2023/10/28 11:28:43;;;;;;;;;1.00;1.00;;;;;;;;6280363;22;45935;-83
2023/10/28 11:31:10;;;;;;;;;0.00;0.00;;;;;;;;6280448;22;46505;-83
2023/10/28 11:33:36;;;;;;;;;0.00;0.00;;;;;;;;6280274;22;45258;-84
2023/10/28 11:36:02;;;;;;;;;3.33;2.00;;;;;;;;6309749;22;45224;-81
2023/10/28 11:38:30;;;;;;;;;2.00;0.33;;;;;;;;6308331;22;45288;-83
2023/10/28 11:41:02;;;;;;;;;1.00;1.00;;;;;;;;6308909;22;45372;-83
2023/10/28 11:43:28;;;;;;;;;1.33;1.00;;;;;;;;6280898;22;45195;-79
2023/10/28 11:45:53;;;;;;;;;1.00;1.00;;;;;;;;6309108;22;45252;-82
2023/10/28 11:48:18;;;;;;;;;2.00;0.00;;;;;;;;6308385;22;45203;-81
2023/10/28 11:50:44;;;;;;;;;0.00;0.00;;;;;;;;6308534;22;46716;-82
2023/10/28 11:53:10;;;;;;;;;0.00;0.00;;;;;;;;6308911;22;45200;-82
2023/10/28 11:55:35;;;;;;;;;5.33;5.33;;;;;;;;6309609;22;45243;-85
2023/10/28 11:58:00;;;;;;;;;23.33;20.00;;;;;;;;6279797;22;46671;-84
2023/10/28 12:00:26;;;;;;;;;1.00;1.00;;;;;;;;6281306;22;46001;-83
2023/10/28 12:02:51;;;;;;;;;1.00;1.00;;;;;;;;6281140;22;45284;-83
2023/10/28 12:05:16;;;;;;;;;1.00;0.00;;;;;;;;6310063;22;45271;-83
2023/10/28 12:07:42;;;;;;;;;0.67;0.67;;;;;;;;6308597;22;45381;-84
2023/10/28 12:10:07;;;;;;;;;1.00;0.00;;;;;;;;6309120;22;45333;-81
2023/10/28 12:12:32;;;;;;;;;1.00;1.00;;;;;;;;6307617;22;45582;-83
2023/10/28 12:14:57;;;;;;;;;0.00;0.00;;;;;;;;6280760;22;45590;-85
2023/10/28 12:17:23;;;;;;;;;0.00;0.00;;;;;;;;6308342;22;45209;-85
2023/10/28 12:19:48;;;;;;;;;1.00;1.00;;;;;;;;6279916;22;47071;-81
2023/10/28 12:22:13;;;;;;;;;2.00;1.00;;;;;;;;6308712;22;45278;-81
2023/10/28 12:24:39;;;;;;;;;0.00;0.00;;;;;;;;6308560;22;45314;-81
2023/10/28 12:27:04;;;;;;;;;0.00;0.00;;;;;;;;6308612;22;45420;-83
2023/10/28 12:29:29;;;;;;;;;0.00;0.00;;;;;;;;6280782;22;47210;-81
2023/10/28 12:31:54;;;;;;;;;0.00;0.00;;;;;;;;6279995;22;45362;-83
2023/10/28 12:34:19;;;;;;;;;0.00;0.00;;;;;;;;6309179;22;45183;-82
2023/10/28 12:36:47;;;;;;;;;0.00;0.00;;;;;;;;6308419;22;45295;-83
2023/10/28 12:39:16;;;;;;;;;0.00;0.00;;;;;;;;6308861;22;45549;-84
2023/10/28 12:41:41;;;;;;;;;1.00;0.00;;;;;;;;6308641;22;45286;-84
2023/10/28 12:44:06;;;;;;;;;0.00;0.00;;;;;;;;6309016;22;45264;-83
2023/10/28 12:46:31;;;;;;;;;0.33;0.33;;;;;;;;6280306;22;45472;-84
2023/10/28 12:48:56;;;;;;;;;1.67;1.00;;;;;;;;6308615;22;45313;-80
2023/10/28 12:51:22;;;;;;;;;0.00;0.00;;;;;;;;6280659;22;45293;-84
2023/10/28 12:53:47;;;;;;;;;3.67;3.33;;;;;;;;6309179;22;45207;-82
2023/10/28 12:56:13;;;;;;;;;1.67;1.00;;;;;;;;6281190;22;46155;-82
2023/10/28 12:58:38;;;;;;;;;0.00;0.00;;;;;;;;6309292;22;45357;-80
2023/10/28 13:01:04;;;;;;;;;0.00;0.00;;;;;;;;6309306;22;45318;-86
2023/10/28 13:03:29;;;;;;;;;0.00;0.00;;;;;;;;6280330;22;45269;-79
2023/10/28 13:05:55;;;;;;;;;0.00;0.00;;;;;;;;6280190;22;46102;-84
2023/10/28 13:08:21;;;;;;;;;1.00;0.00;;;;;;;;6308633;22;45477;-83
2023/10/28 13:10:47;;;;;;;;;0.00;0.00;;;;;;;;6280079;22;45210;-82
2023/10/28 13:13:12;;;;;;;;;1.00;1.00;;;;;;;;6307701;22;45196;-81
2023/10/28 13:15:39;;;;;;;;;0.00;0.00;;;;;;;;6279417;22;46965;-79
2023/10/28 13:18:05;;;;;;;;;0.00;0.00;;;;;;;;6308101;22;46556;-81
2023/10/28 13:20:32;;;;;;;;;1.00;1.00;;;;;;;;6280145;22;45187;-82
2023/10/28 13:22:57;;;;;;;;;1.00;0.00;;;;;;;;6308084;22;45331;-80
2023/10/28 13:25:23;;;;;;;;;1.67;0.00;;;;;;;;6308379;22;45209;-80
2023/10/28 13:27:48;;;;;;;;;0.00;0.00;;;;;;;;6307733;22;46088;-80
2023/10/28 13:30:15;;;;;;;;;0.00;0.00;;;;;;;;6280063;22;45250;-80
2023/10/28 13:32:41;;;;;;;;;0.00;0.00;;;;;;;;6308601;22;45189;-83
2023/10/28 13:35:08;;;;;;;;;0.00;0.00;;;;;;;;6308000;22;45223;-80
2023/10/28 13:37:33;;;;;;;;;0.00;0.00;;;;;;;;6307862;22;45589;-80
2023/10/28 13:39:58;;;;;;;;;2.00;0.00;;;;;;;;6308305;22;45141;-80
2023/10/28 13:42:25;;;;;;;;;0.00;0.00;;;;;;;;6308093;22;45358;-82
2023/10/28 13:44:50;;;;;;;;;2.00;0.00;;;;;;;;6308255;22;45178;-82
2023/10/28 13:47:15;;;;;;;;;1.00;0.00;;;;;;;;6306639;22;45370;-81
2023/10/28 13:49:42;;;;;;;;;0.33;0.33;;;;;;;;6306994;22;45412;-76
2023/10/28 13:52:07;;;;;;;;;0.33;0.00;;;;;;;;6278511;22;45266;-76
2023/10/28 13:54:32;;;;;;;;;0.00;0.00;;;;;;;;6306214;22;45294;-78
2023/10/28 13:56:58;;;;;;;;;0.00;0.00;;;;;;;;6306490;22;45374;-79
2023/10/28 13:59:23;;;;;;;;;0.00;0.00;;;;;;;;6279809;22;45294;-79
2023/10/28 14:01:50;;;;;;;;;0.00;0.00;;;;;;;;6307395;22;45236;-77
2023/10/28 14:04:15;;;;;;;;;0.00;0.00;;;;;;;;6308744;22;45384;-76
2023/10/28 14:06:42;;;;;;;;;0.00;0.00;;;;;;;;6308305;22;45335;-76
2023/10/28 14:09:09;;;;;;;;;0.00;0.00;;;;;;;;6280197;22;45320;-77
2023/10/28 14:11:34;;;;;;;;;0.67;0.67;;;;;;;;6280373;22;45188;-75
2023/10/28 14:14:00;;;;;;;;;0.00;0.00;;;;;;;;6280926;22;45273;-78
2023/10/28 14:16:25;;;;;;;;;0.00;0.00;;;;;;;;6280194;22;46692;-82
2023/10/28 14:18:50;;;;;;;;;2.00;0.00;;;;;;;;6280864;22;45567;-80
2023/10/28 14:21:19;;;;;;;;;3.00;1.67;;;;;;;;6309219;22;45208;-83
2023/10/28 14:23:44;;;;;;;;;4.00;2.00;;;;;;;;6308683;22;45235;-81
2023/10/28 14:26:10;;;;;;;;;4.33;4.33;;;;;;;;6308722;22;45306;-82
2023/10/28 14:28:35;;;;;;;;;1.00;1.00;;;;;;;;6280377;22;45202;-83
2023/10/28 14:31:01;;;;;;;;;7.00;7.00;;;;;;;;6309470;22;45227;-84
2023/10/28 14:33:26;;;;;;;;;1.00;1.00;;;;;;;;6280766;22;45494;-82
2023/10/28 14:35:51;;;;;;;;;1.00;0.00;;;;;;;;6308903;22;46446;-82